Time;durP1;ratioP1;P1;durP2;ratioP2;P2;SDS_P1;SDS_P2;PMS_P1;PMS_P2;Temp;Humidity;BMP_temperature;BMP_pressure;BME280_temperature;BME280_humidity;BME280_pressure;Samples;Min_cycle;Max_cycle;Signal;HPM_P1;HPM_P2
2022/07/14 00:00:21;;;;;;;11.38;3.60;;;;;;;;;;4877614;29;20398;-63
2022/07/14 00:02:46;;;;;;;12.52;3.70;;;;;;;;;;4876331;29;20041;-63
2022/07/14 00:05:12;;;;;;;13.70;3.58;;;;;;;;;;4877096;29;20036;-64
2022/07/14 00:07:37;;;;;;;9.93;3.33;;;;;;;;;;4882544;29;20033;-63
2022/07/14 00:10:03;;;;;;;13.30;3.75;;;;;;;;;;4888982;29;20055;-63
2022/07/14 00:12:29;;;;;;;12.68;3.45;;;;;;;;;;4884676;29;20037;-63
2022/07/14 00:14:54;;;;;;;10.15;3.50;;;;;;;;;;4888289;29;20037;-63
2022/07/14 00:17:20;;;;;;;9.98;3.60;;;;;;;;;;4885040;29;20068;-63
2022/07/14 00:19:45;;;;;;;14.68;4.00;;;;;;;;;;4875862;29;20374;-62
2022/07/14 00:22:11;;;;;;;15.18;3.58;;;;;;;;;;4870761;29;20032;-67
2022/07/14 00:24:36;;;;;;;12.93;3.13;;;;;;;;;;4888479;29;20037;-63
2022/07/14 00:27:02;;;;;;;13.23;3.28;;;;;;;;;;4879784;29;20037;-66
2022/07/14 00:29:27;;;;;;;15.13;3.58;;;;;;;;;;4878447;29;20041;-63
2022/07/14 00:31:53;;;;;;;9.60;3.50;;;;;;;;;;4878770;29;20043;-62
2022/07/14 00:34:18;;;;;;;9.73;3.22;;;;;;;;;;4880090;29;20121;-64
2022/07/14 00:36:45;;;;;;;15.90;3.78;;;;;;;;;;4882743;29;20447;-63
2022/07/14 00:39:10;;;;;;;13.35;3.55;;;;;;;;;;4880267;29;20048;-67
2022/07/14 00:41:35;;;;;;;12.32;3.55;;;;;;;;;;4879367;29;20029;-62
2022/07/14 00:44:01;;;;;;;14.57;3.50;;;;;;;;;;4890513;29;20040;-63
2022/07/14 00:46:27;;;;;;;10.27;3.40;;;;;;;;;;4886954;29;20521;-63
2022/07/14 00:48:52;;;;;;;16.77;3.40;;;;;;;;;;4879596;29;20037;-63
2022/07/14 00:51:17;;;;;;;14.05;3.95;;;;;;;;;;4892926;29;20084;-63
2022/07/14 00:53:43;;;;;;;14.93;3.75;;;;;;;;;;4900004;29;20488;-62
2022/07/14 00:56:09;;;;;;;16.50;3.78;;;;;;;;;;4863594;29;20033;-63
2022/07/14 00:58:34;;;;;;;15.98;3.80;;;;;;;;;;4885090;29;20048;-63
2022/07/14 01:01:00;;;;;;;13.45;3.45;;;;;;;;;;4879965;29;20029;-63
2022/07/14 01:03:25;;;;;;;10.43;3.70;;;;;;;;;;4878739;29;20037;-63
2022/07/14 01:05:51;;;;;;;11.98;3.42;;;;;;;;;;4864240;29;20539;-63
2022/07/14 01:08:16;;;;;;;14.10;3.70;;;;;;;;;;4886347;29;20060;-64
2022/07/14 01:10:42;;;;;;;11.27;3.13;;;;;;;;;;4884907;29;20111;-64
2022/07/14 01:13:07;;;;;;;11.95;3.53;;;;;;;;;;4879172;29;20037;-63
2022/07/14 01:15:33;;;;;;;10.45;3.50;;;;;;;;;;4879093;29;20108;-63
2022/07/14 01:17:59;;;;;;;16.23;3.63;;;;;;;;;;4890439;29;20033;-63
2022/07/14 01:20:25;;;;;;;13.27;3.75;;;;;;;;;;4879262;29;20097;-64
2022/07/14 01:22:51;;;;;;;17.27;3.72;;;;;;;;;;4883511;29;20036;-63
2022/07/14 01:25:19;;;;;;;11.25;3.72;;;;;;;;;;4897745;29;20443;-62
2022/07/14 01:27:44;;;;;;;11.63;3.40;;;;;;;;;;4880553;29;20068;-62
2022/07/14 01:30:10;;;;;;;15.45;3.67;;;;;;;;;;4880199;29;20443;-63
2022/07/14 01:32:36;;;;;;;14.88;3.60;;;;;;;;;;4882006;29;20055;-62
2022/07/14 01:35:03;;;;;;;15.20;3.70;;;;;;;;;;4879214;29;20055;-63
2022/07/14 01:37:29;;;;;;;13.60;3.72;;;;;;;;;;4877921;29;20446;-63
2022/07/14 01:39:54;;;;;;;16.48;3.67;;;;;;;;;;4878627;29;20500;-63
2022/07/14 01:42:19;;;;;;;15.20;3.67;;;;;;;;;;4890886;29;20135;-64
2022/07/14 01:44:45;;;;;;;14.77;3.85;;;;;;;;;;4879457;29;20037;-62
2022/07/14 01:47:10;;;;;;;14.43;3.55;;;;;;;;;;4880258;29;20398;-62
2022/07/14 01:49:36;;;;;;;14.93;3.67;;;;;;;;;;4876833;29;20132;-62
2022/07/14 01:52:03;;;;;;;12.70;3.67;;;;;;;;;;4878405;29;20073;-63
2022/07/14 01:54:29;;;;;;;17.52;3.72;;;;;;;;;;4876929;29;20479;-63
2022/07/14 01:56:55;;;;;;;18.60;3.70;;;;;;;;;;4878280;29;20394;-64
2022/07/14 01:59:20;;;;;;;15.15;3.88;;;;;;;;;;4880405;29;20470;-64
2022/07/14 02:01:46;;;;;;;15.52;3.60;;;;;;;;;;4879459;29;20379;-63
2022/07/14 02:04:19;;;;;;;12.93;3.53;;;;;;;;;;4880885;29;20394;-64
2022/07/14 02:06:48;;;;;;;16.40;3.92;;;;;;;;;;4879843;29;20029;-62
2022/07/14 02:09:14;;;;;;;17.55;4.05;;;;;;;;;;4880633;29;20043;-64
2022/07/14 02:14:23;;;;;;;14.50;3.60;;;;;;;;;;4875843;29;20048;-63
2022/07/14 02:16:49;;;;;;;11.82;3.45;;;;;;;;;;4878743;29;20037;-62
2022/07/14 02:19:14;;;;;;;13.25;3.72;;;;;;;;;;4872535;29;20033;-66
2022/07/14 02:21:40;;;;;;;12.25;3.83;;;;;;;;;;4877645;29;20489;-62
2022/07/14 02:24:10;;;;;;;14.88;4.20;;;;;;;;;;4888304;29;20037;-63
2022/07/14 02:26:36;;;;;;;12.32;3.60;;;;;;;;;;4876050;29;20048;-63
2022/07/14 02:29:04;;;;;;;14.80;4.40;;;;;;;;;;4879057;29;20120;-62
2022/07/14 02:31:29;;;;;;;14.95;3.88;;;;;;;;;;4876382;29;20037;-63
2022/07/14 02:33:55;;;;;;;16.80;3.92;;;;;;;;;;4880743;29;20085;-63
2022/07/14 02:36:20;;;;;;;15.77;4.00;;;;;;;;;;4877480;29;20172;-63
2022/07/14 02:38:46;;;;;;;15.10;4.32;;;;;;;;;;4894797;29;20044;-63
2022/07/14 02:41:11;;;;;;;15.27;3.80;;;;;;;;;;4877679;29;20053;-63
2022/07/14 02:43:37;;;;;;;14.55;3.78;;;;;;;;;;4876870;29;20717;-63
2022/07/14 02:46:03;;;;;;;18.55;3.70;;;;;;;;;;4879116;29;20466;-62
2022/07/14 02:48:28;;;;;;;13.82;3.70;;;;;;;;;;4873726;29;20037;-63
2022/07/14 02:51:01;;;;;;;16.95;4.88;;;;;;;;;;4877233;29;20045;-63
2022/07/14 02:53:27;;;;;;;15.27;3.60;;;;;;;;;;4883805;29;20064;-63
2022/07/14 02:55:53;;;;;;;13.30;3.75;;;;;;;;;;4879054;29;20120;-62
2022/07/14 02:58:19;;;;;;;10.88;3.88;;;;;;;;;;4859054;29;20388;-66
2022/07/14 03:00:45;;;;;;;11.15;3.70;;;;;;;;;;4879522;29;20036;-63
2022/07/14 03:03:10;;;;;;;13.05;4.20;;;;;;;;;;4883644;29;22134;-63
2022/07/14 03:05:36;;;;;;;14.40;4.03;;;;;;;;;;4893119;29;20040;-64
2022/07/14 03:08:01;;;;;;;12.93;3.45;;;;;;;;;;4891759;29;21589;-62
2022/07/14 03:10:27;;;;;;;13.88;3.85;;;;;;;;;;4878393;29;20041;-65
2022/07/14 03:12:52;;;;;;;16.27;4.05;;;;;;;;;;4877183;29;20559;-63
2022/07/14 03:15:18;;;;;;;13.50;3.90;;;;;;;;;;4878588;29;20032;-68
2022/07/14 03:17:44;;;;;;;14.00;3.85;;;;;;;;;;4877593;29;20033;-63
2022/07/14 03:20:09;;;;;;;11.15;3.50;;;;;;;;;;4880697;29;20037;-63
2022/07/14 03:22:35;;;;;;;15.75;4.13;;;;;;;;;;4876856;29;20033;-67
2022/07/14 03:25:00;;;;;;;14.60;4.05;;;;;;;;;;4892132;29;20501;-63
2022/07/14 03:27:26;;;;;;;14.98;3.97;;;;;;;;;;4896325;29;20394;-63
2022/07/14 03:29:51;;;;;;;15.15;3.60;;;;;;;;;;4876467;29;20041;-63
2022/07/14 03:32:17;;;;;;;14.15;4.00;;;;;;;;;;4876946;29;20033;-63
2022/07/14 03:34:42;;;;;;;13.18;4.13;;;;;;;;;;4878228;29;20900;-63
2022/07/14 03:37:09;;;;;;;9.98;4.18;;;;;;;;;;4886574;29;20482;-62
2022/07/14 03:39:34;;;;;;;15.43;3.78;;;;;;;;;;4896077;29;20123;-63
2022/07/14 03:41:59;;;;;;;13.77;4.18;;;;;;;;;;4894799;29;20033;-63
2022/07/14 03:44:25;;;;;;;23.27;5.05;;;;;;;;;;4864040;29;20037;-63
2022/07/14 03:46:51;;;;;;;21.88;5.53;;;;;;;;;;4884071;29;20120;-62
2022/07/14 03:49:16;;;;;;;13.27;3.88;;;;;;;;;;4896661;29;20390;-62
2022/07/14 03:51:43;;;;;;;19.98;4.60;;;;;;;;;;4889327;29;20064;-63
2022/07/14 03:54:08;;;;;;;14.32;4.05;;;;;;;;;;4896474;29;20044;-63
2022/07/14 03:56:34;;;;;;;13.50;3.90;;;;;;;;;;4892500;29;20598;-63
2022/07/14 03:58:59;;;;;;;15.25;4.28;;;;;;;;;;4886597;29;20047;-63
2022/07/14 04:01:25;;;;;;;14.88;4.15;;;;;;;;;;4874817;29;20033;-66
2022/07/14 04:03:50;;;;;;;18.05;3.90;;;;;;;;;;4877956;29;20412;-63
2022/07/14 04:06:15;;;;;;;15.07;4.10;;;;;;;;;;4883067;29;20036;-63
2022/07/14 04:08:42;;;;;;;13.48;4.25;;;;;;;;;;4896073;29;20111;-63
2022/07/14 04:11:07;;;;;;;12.18;3.72;;;;;;;;;;4890473;29;20479;-63
2022/07/14 04:13:32;;;;;;;14.77;3.97;;;;;;;;;;4875467;29;20036;-63
2022/07/14 04:15:58;;;;;;;15.98;3.92;;;;;;;;;;4875566;29;20033;-63
2022/07/14 04:18:24;;;;;;;16.17;4.00;;;;;;;;;;4876538;29;20037;-66
2022/07/14 04:20:50;;;;;;;19.67;4.38;;;;;;;;;;4875590;29;21134;-62
2022/07/14 04:23:16;;;;;;;19.13;4.05;;;;;;;;;;4878107;29;20075;-63
2022/07/14 04:25:41;;;;;;;13.98;3.92;;;;;;;;;;4875225;29;20371;-63
2022/07/14 04:28:06;;;;;;;16.50;3.88;;;;;;;;;;4877970;29;20044;-63
2022/07/14 04:30:32;;;;;;;16.15;4.10;;;;;;;;;;4884357;29;20090;-64
2022/07/14 04:32:57;;;;;;;15.98;4.22;;;;;;;;;;4886506;29;20140;-63
2022/07/14 04:35:23;;;;;;;13.55;3.53;;;;;;;;;;4876454;29;20401;-66
2022/07/14 04:37:48;;;;;;;20.70;4.10;;;;;;;;;;4882651;29;20033;-64
2022/07/14 04:40:14;;;;;;;12.95;3.45;;;;;;;;;;4883358;29;20386;-63
2022/07/14 04:42:40;;;;;;;17.65;3.95;;;;;;;;;;4893799;29;20397;-63
2022/07/14 04:45:06;;;;;;;16.45;3.95;;;;;;;;;;4896248;29;20044;-63
2022/07/14 04:47:31;;;;;;;14.65;3.85;;;;;;;;;;4887576;29;20112;-65
2022/07/14 04:52:45;;;;;;;14.88;3.72;;;;;;;;;;4889934;29;20056;-63
2022/07/14 04:55:11;;;;;;;13.43;3.60;;;;;;;;;;4883326;29;20040;-63
2022/07/14 04:57:36;;;;;;;17.88;3.88;;;;;;;;;;4886584;29;20036;-63
2022/07/14 05:00:03;;;;;;;15.43;3.72;;;;;;;;;;4891549;29;20071;-63
2022/07/14 05:02:28;;;;;;;12.93;3.63;;;;;;;;;;4885006;29;20032;-67
2022/07/14 05:04:54;;;;;;;14.88;3.33;;;;;;;;;;4896049;29;20187;-63
2022/07/14 05:07:19;;;;;;;14.05;3.53;;;;;;;;;;4886820;29;20040;-63
2022/07/14 05:09:44;;;;;;;15.45;3.42;;;;;;;;;;4886929;29;20048;-63
2022/07/14 05:12:13;;;;;;;12.85;3.60;;;;;;;;;;4899324;29;20081;-63
2022/07/14 05:14:38;;;;;;;10.57;3.33;;;;;;;;;;4896729;29;20433;-64
2022/07/14 05:17:03;;;;;;;14.68;3.25;;;;;;;;;;4895103;29;20036;-63
2022/07/14 05:19:29;;;;;;;18.77;3.65;;;;;;;;;;4878090;29;20033;-67
2022/07/14 05:21:54;;;;;;;14.40;3.63;;;;;;;;;;4882932;29;20040;-64
2022/07/14 05:24:20;;;;;;;10.00;3.28;;;;;;;;;;4877304;29;20037;-63
2022/07/14 05:26:45;;;;;;;18.95;4.28;;;;;;;;;;4884811;29;20040;-65
2022/07/14 05:29:11;;;;;;;15.07;3.53;;;;;;;;;;4893629;29;20040;-65
2022/07/14 05:31:36;;;;;;;18.10;3.70;;;;;;;;;;4895058;29;20036;-64
2022/07/14 05:34:02;;;;;;;17.58;3.42;;;;;;;;;;4893575;29;20378;-63
2022/07/14 05:36:28;;;;;;;13.48;3.60;;;;;;;;;;4884672;29;20132;-67
2022/07/14 05:38:54;;;;;;;14.85;3.25;;;;;;;;;;4880247;29;20131;-63
2022/07/14 05:41:19;;;;;;;16.77;3.70;;;;;;;;;;4893215;29;20044;-62
2022/07/14 05:43:48;;;;;;;15.05;3.67;;;;;;;;;;4879436;29;20037;-65
2022/07/14 05:46:14;;;;;;;13.30;3.40;;;;;;;;;;4889110;29;20052;-64
2022/07/14 05:48:40;;;;;;;12.43;3.22;;;;;;;;;;4881329;29;20367;-64
2022/07/14 05:51:16;;;;;;;20.00;3.90;;;;;;;;;;4891084;29;20121;-63
2022/07/14 05:53:44;;;;;;;13.15;3.47;;;;;;;;;;4897680;29;20055;-63
2022/07/14 05:56:10;;;;;;;12.63;3.67;;;;;;;;;;4881908;29;20488;-63
2022/07/14 05:58:37;;;;;;;15.50;3.13;;;;;;;;;;4879308;29;20043;-63
2022/07/14 06:01:04;;;;;;;16.20;3.45;;;;;;;;;;4879502;29;20044;-61
2022/07/14 06:03:30;;;;;;;18.75;4.05;;;;;;;;;;4879355;29;20081;-66
2022/07/14 06:05:58;;;;;;;16.65;4.30;;;;;;;;;;4878413;29;20036;-63
2022/07/14 06:08:23;;;;;;;14.85;4.03;;;;;;;;;;4862365;29;20037;-63
2022/07/14 06:10:48;;;;;;;18.05;4.15;;;;;;;;;;4879277;29;20101;-62
2022/07/14 06:13:14;;;;;;;15.68;4.30;;;;;;;;;;4879834;29;20116;-64
2022/07/14 06:15:39;;;;;;;21.35;5.45;;;;;;;;;;4883192;29;20124;-63
2022/07/14 06:18:05;;;;;;;16.38;5.60;;;;;;;;;;4884198;29;20090;-63
2022/07/14 06:20:30;;;;;;;20.58;6.68;;;;;;;;;;4892050;29;20053;-68
2022/07/14 06:22:55;;;;;;;23.25;7.13;;;;;;;;;;4883460;29;20079;-67
2022/07/14 06:25:21;;;;;;;28.63;7.00;;;;;;;;;;4888697;29;20398;-65
2022/07/14 06:27:46;;;;;;;25.42;7.00;;;;;;;;;;4881330;29;20192;-65
2022/07/14 06:30:12;;;;;;;20.13;6.80;;;;;;;;;;4895308;29;20055;-64
2022/07/14 06:32:39;;;;;;;22.48;7.40;;;;;;;;;;4877971;29;20116;-65
2022/07/14 06:35:06;;;;;;;25.08;7.00;;;;;;;;;;4898084;29;20040;-64
2022/07/14 06:37:33;;;;;;;17.65;6.47;;;;;;;;;;4881527;29;20114;-65
2022/07/14 06:40:03;;;;;;;22.08;7.35;;;;;;;;;;4879278;29;20041;-64
2022/07/14 06:42:29;;;;;;;21.30;7.57;;;;;;;;;;4896660;29;20036;-67
2022/07/14 06:44:54;;;;;;;23.75;6.78;;;;;;;;;;4880752;29;20033;-65
2022/07/14 06:47:20;;;;;;;15.05;5.40;;;;;;;;;;4879453;29;20390;-64
2022/07/14 06:49:45;;;;;;;26.25;5.68;;;;;;;;;;4860917;29;20044;-66
2022/07/14 06:52:11;;;;;;;14.43;4.95;;;;;;;;;;4897712;29;20048;-64
2022/07/14 06:54:36;;;;;;;18.77;5.07;;;;;;;;;;4874342;29;20037;-65
2022/07/14 06:57:01;;;;;;;24.95;5.53;;;;;;;;;;4864332;29;20223;-64
2022/07/14 06:59:27;;;;;;;18.05;5.18;;;;;;;;;;4890758;29;20040;-67
2022/07/14 07:01:52;;;;;;;23.92;5.82;;;;;;;;;;4896547;29;20060;-65
2022/07/14 07:04:18;;;;;;;19.65;4.90;;;;;;;;;;4891436;29;20032;-65
2022/07/14 07:06:43;;;;;;;19.48;5.88;;;;;;;;;;4879858;29;20040;-64
2022/07/14 07:09:09;;;;;;;17.80;5.35;;;;;;;;;;4895865;29;20037;-65
2022/07/14 07:11:35;;;;;;;15.50;3.80;;;;;;;;;;4882822;29;20076;-65
2022/07/14 07:14:01;;;;;;;14.70;3.67;;;;;;;;;;4885656;29;20040;-62
2022/07/14 07:16:27;;;;;;;14.98;4.32;;;;;;;;;;4896957;29;20047;-66
2022/07/14 07:18:52;;;;;;;18.13;4.43;;;;;;;;;;4875392;29;20045;-64
2022/07/14 07:21:20;;;;;;;13.88;4.10;;;;;;;;;;4876518;29;20036;-63
2022/07/14 07:23:49;;;;;;;16.05;3.90;;;;;;;;;;4876512;29;20148;-65
2022/07/14 07:26:15;;;;;;;11.43;3.05;;;;;;;;;;4882876;29;20040;-64
2022/07/14 07:28:41;;;;;;;13.88;2.90;;;;;;;;;;4889244;29;20089;-63
2022/07/14 07:31:06;;;;;;;9.25;2.85;;;;;;;;;;4878390;29;20395;-64
2022/07/14 07:33:35;;;;;;;16.75;3.15;;;;;;;;;;4877475;29;20037;-66
2022/07/14 07:36:00;;;;;;;11.90;3.05;;;;;;;;;;4887384;29;20044;-65
2022/07/14 07:38:26;;;;;;;10.93;2.72;;;;;;;;;;4878215;29;20029;-67
2022/07/14 07:40:53;;;;;;;9.82;2.63;;;;;;;;;;4878806;29;20036;-67
2022/07/14 07:43:21;;;;;;;8.90;2.58;;;;;;;;;;4877053;29;20033;-63
2022/07/14 07:45:47;;;;;;;13.90;2.90;;;;;;;;;;4875702;29;20064;-64
2022/07/14 07:48:12;;;;;;;10.48;2.72;;;;;;;;;;4876368;29;20064;-64
2022/07/14 07:50:41;;;;;;;11.18;2.65;;;;;;;;;;4877169;29;20087;-65
2022/07/14 07:53:07;;;;;;;10.82;2.78;;;;;;;;;;4876288;29;20057;-63
2022/07/14 07:55:33;;;;;;;9.50;2.70;;;;;;;;;;4884357;29;20048;-65
2022/07/14 07:57:59;;;;;;;10.02;2.42;;;;;;;;;;4896728;29;20393;-65
2022/07/14 08:00:25;;;;;;;8.20;2.10;;;;;;;;;;4894806;29;20064;-64
2022/07/14 08:02:53;;;;;;;8.35;2.17;;;;;;;;;;4895802;29;20119;-64
2022/07/14 08:05:20;;;;;;;7.90;1.90;;;;;;;;;;4895605;29;20142;-64
2022/07/14 08:07:45;;;;;;;7.90;2.22;;;;;;;;;;4887379;29;20101;-65
2022/07/14 08:10:10;;;;;;;9.63;2.60;;;;;;;;;;4878264;29;20494;-65
2022/07/14 08:12:37;;;;;;;9.50;2.22;;;;;;;;;;4881820;29;20037;-64
2022/07/14 08:15:03;;;;;;;8.85;2.47;;;;;;;;;;4876202;29;20078;-65
2022/07/14 08:17:29;;;;;;;10.07;2.75;;;;;;;;;;4888512;29;20101;-68
2022/07/14 08:19:55;;;;;;;11.43;2.45;;;;;;;;;;4876726;29;20055;-66
2022/07/14 08:22:24;;;;;;;7.45;2.00;;;;;;;;;;4888579;29;20393;-63
2022/07/14 08:24:51;;;;;;;6.30;2.10;;;;;;;;;;4876984;29;20481;-67
2022/07/14 08:27:17;;;;;;;9.13;1.70;;;;;;;;;;4891767;29;20406;-62
2022/07/14 08:29:42;;;;;;;10.25;2.05;;;;;;;;;;4892865;29;20049;-63
2022/07/14 08:32:08;;;;;;;8.98;2.10;;;;;;;;;;4884098;29;20044;-65
2022/07/14 08:34:33;;;;;;;9.05;2.05;;;;;;;;;;4881954;29;20049;-65
2022/07/14 08:36:59;;;;;;;7.22;2.10;;;;;;;;;;4899884;29;20043;-66
2022/07/14 08:39:25;;;;;;;6.97;1.70;;;;;;;;;;4894417;29;20056;-65
2022/07/14 08:41:54;;;;;;;6.90;1.70;;;;;;;;;;4891853;29;20097;-64
2022/07/14 08:44:20;;;;;;;6.82;1.85;;;;;;;;;;4884657;29;20084;-66
2022/07/14 08:46:46;;;;;;;7.38;1.90;;;;;;;;;;4888738;29;20033;-63
2022/07/14 08:49:14;;;;;;;8.90;1.60;;;;;;;;;;4887124;29;20043;-64
2022/07/14 08:51:42;;;;;;;4.60;1.50;;;;;;;;;;4898908;29;20081;-62
2022/07/14 08:54:09;;;;;;;7.05;1.80;;;;;;;;;;4892963;29;20475;-61
2022/07/14 08:56:38;;;;;;;8.38;1.95;;;;;;;;;;4880105;29;20060;-64
2022/07/14 08:59:04;;;;;;;6.90;1.67;;;;;;;;;;4887442;29;20045;-63
2022/07/14 09:01:32;;;;;;;8.85;1.88;;;;;;;;;;4887778;29;20037;-65
2022/07/14 09:03:59;;;;;;;7.03;2.00;;;;;;;;;;4886300;29;20032;-65
2022/07/14 09:06:52;;;;;;;7.22;1.90;;;;;;;;;;4899608;29;20052;-64
2022/07/14 09:09:34;;;;;;;9.25;1.80;;;;;;;;;;4862272;29;20090;-65
2022/07/14 09:12:05;;;;;;;7.28;2.10;;;;;;;;;;4868859;29;20039;-64
2022/07/14 09:17:23;;;;;;;12.68;2.20;;;;;;;;;;4886227;29;20067;-65
2022/07/14 09:20:04;;;;;;;8.88;1.80;;;;;;;;;;4899048;29;20674;-66
2022/07/14 09:22:32;;;;;;;7.47;1.80;;;;;;;;;;4897674;29;20037;-67
2022/07/14 09:24:58;;;;;;;9.48;1.80;;;;;;;;;;4899280;29;20422;-65
2022/07/14 09:27:25;;;;;;;4.80;1.35;;;;;;;;;;4897743;29;20394;-63
2022/07/14 09:29:55;;;;;;;4.93;1.60;;;;;;;;;;4884458;29;20045;-64
2022/07/14 09:32:55;;;;;;;6.80;1.70;;;;;;;;;;4892481;29;20056;-67
2022/07/14 09:35:23;;;;;;;6.07;1.60;;;;;;;;;;4899147;29;20071;-66
2022/07/14 09:37:50;;;;;;;3.65;1.40;;;;;;;;;;4886898;29;20068;-64
2022/07/14 09:40:25;;;;;;;5.68;1.50;;;;;;;;;;4895388;29;20033;-64
2022/07/14 09:42:52;;;;;;;3.47;1.45;;;;;;;;;;4890542;29;20048;-65
2022/07/14 09:45:33;;;;;;;3.58;1.52;;;;;;;;;;4879178;29;20101;-64
2022/07/14 09:48:06;;;;;;;6.70;2.00;;;;;;;;;;4883305;29;20048;-65
2022/07/14 09:50:37;;;;;;;8.15;1.67;;;;;;;;;;4878356;29;20039;-67
2022/07/14 09:53:33;;;;;;;5.63;1.50;;;;;;;;;;4883002;29;20044;-66
2022/07/14 09:56:08;;;;;;;4.70;1.50;;;;;;;;;;4883445;29;20053;-64
2022/07/14 09:58:44;;;;;;;6.10;1.67;;;;;;;;;;4889365;29;20033;-64
2022/07/14 10:01:15;;;;;;;6.20;1.70;;;;;;;;;;4880100;29;20037;-64
2022/07/14 10:03:44;;;;;;;6.00;1.75;;;;;;;;;;4884766;29;20029;-64
2022/07/14 10:06:11;;;;;;;7.53;1.60;;;;;;;;;;4878726;29;20040;-65
2022/07/14 10:08:40;;;;;;;7.22;1.80;;;;;;;;;;4895385;29;20032;-66
2022/07/14 10:11:06;;;;;;;7.32;1.80;;;;;;;;;;4898492;29;20032;-62
2022/07/14 10:13:32;;;;;;;4.28;1.40;;;;;;;;;;4890058;29;20068;-64
2022/07/14 10:15:58;;;;;;;9.57;1.70;;;;;;;;;;4878870;29;20055;-65
2022/07/14 10:18:25;;;;;;;3.95;1.63;;;;;;;;;;4887523;29;20057;-65
2022/07/14 10:20:53;;;;;;;6.15;1.50;;;;;;;;;;4879048;29;20041;-64
2022/07/14 10:23:20;;;;;;;5.70;1.60;;;;;;;;;;4894466;29;20032;-63
2022/07/14 10:25:47;;;;;;;8.00;1.65;;;;;;;;;;4892724;29;20104;-62
2022/07/14 10:28:15;;;;;;;4.53;1.50;;;;;;;;;;4892800;29;20041;-63
2022/07/14 10:31:15;;;;;;;7.45;1.50;;;;;;;;;;4894638;29;20386;-65
2022/07/14 10:33:53;;;;;;;3.92;1.50;;;;;;;;;;4855368;29;20056;-62
2022/07/14 10:36:33;;;;;;;7.40;1.42;;;;;;;;;;4880661;29;20040;-63
2022/07/14 10:39:27;;;;;;;5.10;1.45;;;;;;;;;;4884209;29;20037;-64
2022/07/14 10:42:14;;;;;;;4.85;1.50;;;;;;;;;;4883333;29;20047;-64
2022/07/14 10:44:45;;;;;;;4.97;1.52;;;;;;;;;;4895792;29;20442;-64
2022/07/14 10:47:12;;;;;;;6.07;1.50;;;;;;;;;;4896220;29;20052;-63
2022/07/14 10:50:09;;;;;;;4.65;1.63;;;;;;;;;;4891869;29;20041;-66
2022/07/14 10:52:49;;;;;;;17.27;1.70;;;;;;;;;;4880485;29;20048;-66
2022/07/14 10:55:19;;;;;;;6.27;1.77;;;;;;;;;;4878624;29;20565;-64
2022/07/14 10:58:07;;;;;;;4.47;1.65;;;;;;;;;;4883657;29;20033;-65
2022/07/14 11:00:44;;;;;;;5.03;1.80;;;;;;;;;;4871165;29;20140;-63
2022/07/14 11:03:39;;;;;;;6.22;1.58;;;;;;;;;;4889696;29;20049;-64
2022/07/14 11:06:08;;;;;;;5.10;1.45;;;;;;;;;;4877301;29;20105;-65
2022/07/14 11:08:36;;;;;;;4.35;1.60;;;;;;;;;;4885452;29;20043;-64
2022/07/14 11:11:08;;;;;;;4.70;1.60;;;;;;;;;;4897580;29;20044;-64
2022/07/14 11:13:34;;;;;;;5.78;1.85;;;;;;;;;;4887130;29;20112;-66
2022/07/14 11:16:03;;;;;;;5.47;1.95;;;;;;;;;;4878742;29;20029;-65
2022/07/14 11:18:42;;;;;;;6.35;1.90;;;;;;;;;;4877492;29;20036;-67
2022/07/14 11:21:18;;;;;;;7.50;1.90;;;;;;;;;;4877922;29;20044;-66
2022/07/14 11:23:47;;;;;;;4.20;1.70;;;;;;;;;;4877579;29;20041;-64
2022/07/14 11:26:36;;;;;;;5.45;1.63;;;;;;;;;;4873669;29;20063;-65
2022/07/14 11:29:11;;;;;;;6.32;1.98;;;;;;;;;;4884359;29;20052;-65
2022/07/14 11:31:51;;;;;;;4.13;1.40;;;;;;;;;;4883213;29;20171;-65
2022/07/14 11:37:12;;;;;;;3.42;1.38;;;;;;;;;;4877860;29;20084;-65
2022/07/14 11:39:38;;;;;;;3.78;1.63;;;;;;;;;;4877332;29;20501;-65
2022/07/14 11:42:16;;;;;;;3.97;1.80;;;;;;;;;;4880077;29;20037;-64
2022/07/14 11:44:42;;;;;;;3.58;1.60;;;;;;;;;;4894337;29;20029;-64
2022/07/14 11:47:21;;;;;;;3.50;1.42;;;;;;;;;;4880086;29;20156;-65
2022/07/14 11:49:56;;;;;;;4.03;1.60;;;;;;;;;;4878330;29;20365;-63
2022/07/14 11:52:27;;;;;;;6.40;1.58;;;;;;;;;;4889202;29;20045;-64
2022/07/14 11:54:53;;;;;;;8.60;2.20;;;;;;;;;;4878278;29;20371;-64
2022/07/14 11:57:21;;;;;;;5.25;1.50;;;;;;;;;;4883384;29;20036;-64
2022/07/14 11:59:46;;;;;;;3.90;1.50;;;;;;;;;;4876524;29;20051;-66
2022/07/14 12:02:14;;;;;;;4.03;1.50;;;;;;;;;;4878167;29;20113;-66
2022/07/14 12:04:59;;;;;;;4.47;1.60;;;;;;;;;;4892298;29;20033;-66
2022/07/14 12:07:46;;;;;;;5.20;1.73;;;;;;;;;;4895990;29;20101;-65
2022/07/14 12:10:13;;;;;;;4.82;1.50;;;;;;;;;;4896745;29;20043;-65
2022/07/14 12:12:44;;;;;;;4.53;1.50;;;;;;;;;;4892417;29;20040;-64
2022/07/14 12:15:11;;;;;;;6.95;1.83;;;;;;;;;;4875000;29;20111;-65
2022/07/14 12:17:48;;;;;;;5.45;1.67;;;;;;;;;;4876817;29;20056;-64
2022/07/14 12:20:14;;;;;;;5.45;1.90;;;;;;;;;;4875724;29;20079;-64
2022/07/14 12:22:51;;;;;;;4.90;1.70;;;;;;;;;;4876309;29;20065;-64
2022/07/14 12:25:41;;;;;;;4.95;1.75;;;;;;;;;;4885440;29;20045;-64
2022/07/14 12:28:11;;;;;;;6.95;2.05;;;;;;;;;;4881536;29;20100;-64
2022/07/14 12:30:43;;;;;;;4.07;1.70;;;;;;;;;;4895434;29;20394;-66
2022/07/14 12:33:09;;;;;;;4.32;1.40;;;;;;;;;;4889671;29;20104;-64
2022/07/14 12:35:35;;;;;;;4.03;1.65;;;;;;;;;;4876350;29;20037;-64
2022/07/14 12:38:01;;;;;;;3.78;1.50;;;;;;;;;;4881027;29;20033;-65
2022/07/14 12:40:26;;;;;;;3.63;1.58;;;;;;;;;;4896329;29;20120;-64
2022/07/14 12:42:52;;;;;;;3.92;1.55;;;;;;;;;;4894065;29;20044;-66
2022/07/14 12:45:17;;;;;;;5.38;1.60;;;;;;;;;;4896202;29;20040;-63
2022/07/14 12:47:52;;;;;;;3.60;1.50;;;;;;;;;;4861605;29;20451;-65
2022/07/14 12:50:19;;;;;;;3.20;1.40;;;;;;;;;;4875722;29;20533;-62
2022/07/14 12:52:53;;;;;;;2.63;1.50;;;;;;;;;;4892115;29;20492;-63
2022/07/14 12:55:44;;;;;;;2.90;1.52;;;;;;;;;;4879392;29;20094;-63
2022/07/14 12:58:12;;;;;;;4.75;1.67;;;;;;;;;;4866846;29;20097;-65
2022/07/14 13:00:39;;;;;;;9.05;1.63;;;;;;;;;;4859002;29;20033;-65
2022/07/14 13:03:12;;;;;;;3.28;1.30;;;;;;;;;;4884885;29;20037;-63
2022/07/14 13:05:50;;;;;;;6.78;1.50;;;;;;;;;;4876276;29;20128;-63
2022/07/14 13:08:35;;;;;;;4.63;1.60;;;;;;;;;;4896078;29;20036;-65
2022/07/14 13:11:03;;;;;;;4.47;1.50;;;;;;;;;;4891656;29;20064;-66
2022/07/14 13:13:36;;;;;;;4.03;1.52;;;;;;;;;;4890445;29;20033;-67
2022/07/14 13:16:18;;;;;;;4.80;1.60;;;;;;;;;;4877912;29;20085;-64
2022/07/14 13:19:07;;;;;;;2.92;1.50;;;;;;;;;;4857996;29;20037;-63
2022/07/14 13:21:53;;;;;;;3.33;1.40;;;;;;;;;;4877339;29;20116;-67
2022/07/14 13:24:30;;;;;;;4.80;1.40;;;;;;;;;;4899010;29;20367;-64
2022/07/14 13:27:11;;;;;;;5.03;1.70;;;;;;;;;;4897500;29;20123;-64
2022/07/14 13:29:47;;;;;;;3.95;1.58;;;;;;;;;;4893890;29;20393;-64
2022/07/14 13:32:13;;;;;;;4.00;1.40;;;;;;;;;;4899549;29;20052;-64
2022/07/14 13:34:39;;;;;;;3.88;1.55;;;;;;;;;;4897461;29;20041;-66
2022/07/14 13:37:05;;;;;;;5.50;1.50;;;;;;;;;;4880117;29;20474;-65
2022/07/14 13:39:31;;;;;;;3.67;1.40;;;;;;;;;;4882884;29;20415;-66
2022/07/14 13:42:00;;;;;;;5.60;1.50;;;;;;;;;;4880231;29;20068;-65
2022/07/14 13:44:26;;;;;;;2.30;1.20;;;;;;;;;;4887395;29;20403;-63
2022/07/14 13:46:53;;;;;;;5.40;1.30;;;;;;;;;;4898133;29;20174;-64
2022/07/14 13:49:18;;;;;;;4.65;1.42;;;;;;;;;;4893895;29;20044;-64
2022/07/14 13:54:29;;;;;;;4.25;1.45;;;;;;;;;;4893002;29;20509;-65
2022/07/14 13:56:55;;;;;;;3.72;1.58;;;;;;;;;;4879807;29;20371;-63
2022/07/14 13:59:20;;;;;;;2.75;1.33;;;;;;;;;;4896857;29;20085;-67
2022/07/14 14:01:46;;;;;;;3.80;1.50;;;;;;;;;;4893730;29;20525;-67
2022/07/14 14:04:13;;;;;;;4.25;1.50;;;;;;;;;;4898215;29;20032;-64
2022/07/14 14:06:41;;;;;;;2.33;1.40;;;;;;;;;;4880344;29;20041;-64
2022/07/14 14:09:08;;;;;;;4.07;1.50;;;;;;;;;;4877099;29;20041;-64
2022/07/14 14:11:34;;;;;;;2.40;1.30;;;;;;;;;;4889641;29;20462;-65
2022/07/14 14:13:59;;;;;;;4.05;1.58;;;;;;;;;;4893734;29;20036;-63
2022/07/14 14:16:26;;;;;;;3.17;1.38;;;;;;;;;;4881158;29;20033;-64
2022/07/14 14:18:52;;;;;;;5.07;1.60;;;;;;;;;;4885502;29;20040;-65
2022/07/14 14:21:18;;;;;;;4.68;1.58;;;;;;;;;;4886566;29;20067;-64
2022/07/14 14:23:44;;;;;;;3.33;1.70;;;;;;;;;;4883654;29;20474;-65
2022/07/14 14:26:10;;;;;;;3.47;1.38;;;;;;;;;;4893795;29;20526;-65
2022/07/14 14:28:35;;;;;;;5.03;1.60;;;;;;;;;;4879824;29;20115;-65
2022/07/14 14:31:01;;;;;;;2.63;1.40;;;;;;;;;;4878752;29;20181;-64
2022/07/14 14:33:27;;;;;;;3.67;1.42;;;;;;;;;;4890314;29;20036;-65
2022/07/14 14:35:53;;;;;;;5.22;1.42;;;;;;;;;;4889281;29;20033;-65
2022/07/14 14:38:19;;;;;;;4.60;1.60;;;;;;;;;;4880914;29;20036;-64
2022/07/14 14:40:44;;;;;;;6.53;1.98;;;;;;;;;;4889620;29;20459;-66
2022/07/14 14:43:13;;;;;;;3.20;1.48;;;;;;;;;;4897412;29;20032;-63
2022/07/14 14:45:42;;;;;;;4.70;1.58;;;;;;;;;;4894801;29;20045;-63
2022/07/14 14:48:08;;;;;;;3.83;1.40;;;;;;;;;;4893385;29;20063;-65
2022/07/14 14:50:34;;;;;;;4.38;1.35;;;;;;;;;;4877358;29;20466;-65
2022/07/14 14:53:01;;;;;;;5.85;1.42;;;;;;;;;;4877058;29;20052;-63
2022/07/14 14:55:27;;;;;;;2.85;1.60;;;;;;;;;;4875591;29;20082;-64